createdAt,value
2017-08-13T00:08:59.541Z,92.14
2017-08-13T00:19:22.865Z,92.71
2017-08-13T00:29:45.083Z,95.93
2017-08-13T00:45:23.003Z,96.26
2017-08-13T00:55:48.865Z,96.11
2017-08-13T01:00:54.772Z,96.63
2017-08-13T01:11:18.011Z,96.42
2017-08-13T01:21:39.242Z,96.57
2017-08-13T01:32:01.838Z,96.31
2017-08-13T01:47:41.317Z,96.46
2017-08-13T01:52:47.169Z,96.84
2017-08-13T02:03:09.814Z,96.67
2017-08-13T02:08:15.578Z,96.61
2017-08-13T02:18:38.340Z,96.26
2017-08-13T02:29:00.866Z,96.82
2017-08-13T02:39:23.582Z,96.59
2017-08-13T02:49:46.096Z,96.07
2017-08-13T03:00:08.709Z,96.60
2017-08-13T03:10:30.604Z,96.23
2017-08-13T03:20:52.421Z,96.43
2017-08-13T03:31:14.220Z,96.70
2017-08-13T03:46:52.808Z,96.41
2017-08-13T03:57:15.401Z,96.92
2017-08-13T04:07:38.012Z,96.01
2017-08-13T04:17:59.556Z,93.57
2017-08-13T04:28:21.457Z,93.93
2017-08-13T04:38:48.100Z,94.64
2017-08-13T04:49:09.925Z,93.82
2017-08-13T04:59:31.961Z,92.20
2017-08-13T05:09:53.878Z,93.87
2017-08-13T05:20:16.473Z,93.17
2017-08-13T05:30:38.374Z,95.15
2017-08-13T05:41:14.852Z,91.42
2017-08-13T05:51:36.498Z,94.13
2017-08-13T06:01:59.325Z,92.71
2017-08-13T06:12:22.841Z,94.61
2017-08-13T06:22:45.436Z,92.30
2017-08-13T06:33:07.195Z,90.27
2017-08-13T06:48:45.713Z,90.34
2017-08-13T06:59:07.283Z,85.73
2017-08-13T07:09:29.137Z,84.50
2017-08-13T07:19:52.506Z,81.88
2017-08-13T07:30:15.144Z,78.64
2017-08-13T07:45:54.727Z,77.84
2017-08-13T07:56:16.535Z,77.11
2017-08-13T08:06:38.514Z,73.02
2017-08-13T08:17:02.968Z,72.05
2017-08-13T08:22:08.739Z,83.36
2017-08-13T08:32:30.564Z,81.21
2017-08-13T08:48:10.223Z,80.83
2017-08-13T08:58:32.744Z,70.69
2017-08-13T09:08:56.882Z,71.08
2017-08-13T09:19:19.636Z,64.58
2017-08-13T09:29:42.247Z,64.88
2017-08-13T09:45:21.581Z,65.63
2017-08-13T09:55:45.931Z,67.41
2017-08-13T10:06:08.473Z,62.79
2017-08-13T10:16:44.779Z,63.51
2017-08-13T10:27:05.357Z,62.20
2017-08-13T10:37:28.707Z,59.25
2017-08-13T10:47:50.480Z,59.42
2017-08-13T10:52:56.240Z,57.08
2017-08-13T11:03:19.174Z,60.54
2017-08-13T11:13:41.072Z,59.09
2017-08-13T11:18:46.846Z,57.26
2017-08-13T11:29:09.412Z,55.61
2017-08-13T11:39:31.974Z,58.41
2017-08-13T11:49:54.560Z,58.63
2017-08-13T12:00:17.075Z,57.54
2017-08-13T12:10:39.672Z,53.96
2017-08-13T12:21:01.464Z,56.30
2017-08-13T12:31:23.208Z,54.94
2017-08-13T12:47:00.240Z,48.90
2017-08-13T12:57:21.967Z,52.46
2017-08-13T13:07:44.588Z,53.20
2017-08-13T13:18:07.129Z,49.70
2017-08-13T13:28:33.623Z,50.40
2017-08-13T13:38:54.170Z,46.54
2017-08-13T13:49:15.990Z,48.27
2017-08-13T13:59:38.502Z,46.85
2017-08-13T14:10:01.195Z,48.75
2017-08-13T14:20:22.932Z,50.27
2017-08-13T14:30:46.192Z,50.87
2017-08-13T14:46:22.560Z,51.75
2017-08-13T14:56:45.870Z,51.15
2017-08-13T15:07:09.429Z,51.68
2017-08-13T15:17:32.988Z,47.68
2017-08-13T15:27:55.526Z,48.06
2017-08-13T15:38:17.388Z,48.72
2017-08-13T15:48:39.114Z,49.82
2017-08-13T15:59:01.701Z,48.16
2017-08-13T16:09:24.256Z,46.14
2017-08-13T16:19:46.190Z,50.00
2017-08-13T16:30:08.066Z,56.36
2017-08-13T16:40:29.923Z,57.81
2017-08-13T16:50:56.529Z,59.78
2017-08-13T17:01:18.363Z,59.66
2017-08-13T17:11:40.145Z,58.18
2017-08-13T17:22:02.089Z,59.47
2017-08-13T17:32:23.921Z,62.74
2017-08-13T17:48:02.478Z,68.75
2017-08-13T17:58:26.615Z,70.58
2017-08-13T18:08:48.472Z,70.80
2017-08-13T18:19:11.204Z,72.77
2017-08-13T18:29:33.146Z,75.25
2017-08-13T18:39:59.383Z,76.60
2017-08-13T18:50:22.104Z,76.30
2017-08-13T19:00:47.061Z,79.15
2017-08-13T19:05:52.850Z,78.97
2017-08-13T19:16:15.260Z,78.40
2017-08-13T19:26:37.391Z,78.76
2017-08-13T19:36:59.906Z,81.92
2017-08-13T19:47:26.471Z,82.23
2017-08-13T19:57:49.033Z,84.83
2017-08-13T20:08:10.773Z,84.81
2017-08-13T20:18:33.431Z,86.70
2017-08-13T20:28:55.335Z,87.13
2017-08-13T20:39:17.097Z,86.70
2017-08-13T20:49:39.703Z,87.28
2017-08-13T20:54:44.697Z,88.79
2017-08-13T21:05:06.240Z,88.03
2017-08-13T21:15:29.973Z,87.64
2017-08-13T21:20:35.734Z,86.91
2017-08-13T21:30:58.325Z,85.08
2017-08-13T21:46:36.887Z,87.84
2017-08-13T21:56:59.405Z,89.13
2017-08-13T22:07:23.014Z,89.30
2017-08-13T22:17:45.737Z,89.43
2017-08-13T22:28:08.300Z,88.79
2017-08-13T22:38:30.865Z,89.46
2017-08-13T22:48:53.446Z,88.13
2017-08-13T23:01:21.260Z,90.83
2017-08-13T23:11:43.786Z,88.95
2017-08-13T23:22:09.563Z,89.55
2017-08-13T23:32:35.628Z,88.93
2017-08-13T23:37:41.416Z,90.33
2017-08-13T23:48:05.004Z,91.76
2017-08-13T23:58:27.413Z,91.26
